sensor_id;sensor_type;location;lat;lon;timestamp;temperature;humidity
25300;DHT22;13241;51.208;4.432;2023-07-31T00:01:57;18.10;99.90
25300;DHT22;13241;51.208;4.432;2023-07-31T00:04:23;18.10;99.90
25300;DHT22;13241;51.208;4.432;2023-07-31T00:06:50;18.10;99.90
25300;DHT22;13241;51.208;4.432;2023-07-31T00:09:17;18.10;99.90
25300;DHT22;13241;51.208;4.432;2023-07-31T00:11:45;18.10;99.90
25300;DHT22;13241;51.208;4.432;2023-07-31T00:14:12;18.00;99.90
25300;DHT22;13241;51.208;4.432;2023-07-31T00:16:39;18.00;99.90
25300;DHT22;13241;51.208;4.432;2023-07-31T00:19:06;18.00;99.90
25300;DHT22;13241;51.208;4.432;2023-07-31T00:21:33;17.90;99.90
25300;DHT22;13241;51.208;4.432;2023-07-31T00:24:00;18.00;99.90
25300;DHT22;13241;51.208;4.432;2023-07-31T00:26:27;18.00;99.90
25300;DHT22;13241;51.208;4.432;2023-07-31T00:28:54;18.00;99.90
25300;DHT22;13241;51.208;4.432;2023-07-31T00:31:20;18.00;99.90
25300;DHT22;13241;51.208;4.432;2023-07-31T00:33:47;17.90;99.90
25300;DHT22;13241;51.208;4.432;2023-07-31T00:36:14;17.90;99.90
25300;DHT22;13241;51.208;4.432;2023-07-31T00:38:42;17.80;99.90
25300;DHT22;13241;51.208;4.432;2023-07-31T00:41:09;17.90;99.90
25300;DHT22;13241;51.208;4.432;2023-07-31T00:43:35;17.90;99.90
25300;DHT22;13241;51.208;4.432;2023-07-31T00:46:02;17.90;99.90
25300;DHT22;13241;51.208;4.432;2023-07-31T00:48:30;17.90;99.90
25300;DHT22;13241;51.208;4.432;2023-07-31T00:50:56;17.70;99.90
25300;DHT22;13241;51.208;4.432;2023-07-31T00:53:24;17.90;99.90
25300;DHT22;13241;51.208;4.432;2023-07-31T00:55:52;17.90;99.90
25300;DHT22;13241;51.208;4.432;2023-07-31T00:58:19;17.90;99.90
25300;DHT22;13241;51.208;4.432;2023-07-31T01:00:46;17.90;99.90
25300;DHT22;13241;51.208;4.432;2023-07-31T01:03:13;17.90;99.90
25300;DHT22;13241;51.208;4.432;2023-07-31T01:05:53;18.00;99.90
25300;DHT22;13241;51.208;4.432;2023-07-31T01:08:32;17.90;99.90
25300;DHT22;13241;51.208;4.432;2023-07-31T01:11:17;17.90;99.90
25300;DHT22;13241;51.208;4.432;2023-07-31T01:13:46;18.00;99.90
25300;DHT22;13241;51.208;4.432;2023-07-31T01:16:13;17.90;99.90
25300;DHT22;13241;51.208;4.432;2023-07-31T01:18:40;17.90;99.90
25300;DHT22;13241;51.208;4.432;2023-07-31T01:21:33;17.80;99.90
25300;DHT22;13241;51.208;4.432;2023-07-31T01:24:23;17.90;99.90
25300;DHT22;13241;51.208;4.432;2023-07-31T01:27:06;17.90;99.90
25300;DHT22;13241;51.208;4.432;2023-07-31T01:30:11;17.80;99.90
25300;DHT22;13241;51.208;4.432;2023-07-31T01:32:43;17.90;99.90
25300;DHT22;13241;51.208;4.432;2023-07-31T01:35:10;18.00;99.90
25300;DHT22;13241;51.208;4.432;2023-07-31T01:37:37;17.90;99.90
25300;DHT22;13241;51.208;4.432;2023-07-31T01:40:05;17.90;99.90
25300;DHT22;13241;51.208;4.432;2023-07-31T01:42:32;17.90;99.90
25300;DHT22;13241;51.208;4.432;2023-07-31T01:44:59;17.90;99.90
25300;DHT22;13241;51.208;4.432;2023-07-31T01:47:26;17.90;99.90
25300;DHT22;13241;51.208;4.432;2023-07-31T01:49:53;17.80;99.90
25300;DHT22;13241;51.208;4.432;2023-07-31T01:52:20;17.90;99.90
25300;DHT22;13241;51.208;4.432;2023-07-31T01:54:47;17.80;99.90
25300;DHT22;13241;51.208;4.432;2023-07-31T01:57:14;17.90;99.90
25300;DHT22;13241;51.208;4.432;2023-07-31T01:59:41;17.90;99.90
25300;DHT22;13241;51.208;4.432;2023-07-31T02:02:08;17.90;99.90
25300;DHT22;13241;51.208;4.432;2023-07-31T02:04:35;17.90;99.90
25300;DHT22;13241;51.208;4.432;2023-07-31T02:07:02;17.90;99.90
25300;DHT22;13241;51.208;4.432;2023-07-31T02:09:29;17.90;99.90
25300;DHT22;13241;51.208;4.432;2023-07-31T02:11:58;17.90;99.90
25300;DHT22;13241;51.208;4.432;2023-07-31T02:14:25;17.90;99.90
25300;DHT22;13241;51.208;4.432;2023-07-31T02:16:52;17.90;99.90
25300;DHT22;13241;51.208;4.432;2023-07-31T02:19:18;17.90;99.90
25300;DHT22;13241;51.208;4.432;2023-07-31T02:21:45;18.00;99.90
25300;DHT22;13241;51.208;4.432;2023-07-31T02:24:12;17.80;99.90
25300;DHT22;13241;51.208;4.432;2023-07-31T02:26:39;17.80;99.90
25300;DHT22;13241;51.208;4.432;2023-07-31T02:29:08;17.80;99.90
25300;DHT22;13241;51.208;4.432;2023-07-31T02:31:34;17.80;99.90
25300;DHT22;13241;51.208;4.432;2023-07-31T02:34:01;17.80;99.90
25300;DHT22;13241;51.208;4.432;2023-07-31T02:36:28;17.80;99.90
25300;DHT22;13241;51.208;4.432;2023-07-31T02:38:55;17.90;99.90
25300;DHT22;13241;51.208;4.432;2023-07-31T02:41:22;17.90;99.90
25300;DHT22;13241;51.208;4.432;2023-07-31T02:43:49;17.90;99.90
25300;DHT22;13241;51.208;4.432;2023-07-31T02:46:16;18.00;99.90
25300;DHT22;13241;51.208;4.432;2023-07-31T02:48:42;17.90;99.90
25300;DHT22;13241;51.208;4.432;2023-07-31T02:51:09;17.90;99.90
25300;DHT22;13241;51.208;4.432;2023-07-31T02:53:36;17.80;99.90
25300;DHT22;13241;51.208;4.432;2023-07-31T02:56:03;17.90;99.90
25300;DHT22;13241;51.208;4.432;2023-07-31T02:58:30;17.90;99.90
25300;DHT22;13241;51.208;4.432;2023-07-31T03:00:58;17.90;99.90
25300;DHT22;13241;51.208;4.432;2023-07-31T03:03:26;17.90;99.90
25300;DHT22;13241;51.208;4.432;2023-07-31T03:05:53;17.90;99.90
25300;DHT22;13241;51.208;4.432;2023-07-31T03:08:20;17.90;99.90
25300;DHT22;13241;51.208;4.432;2023-07-31T03:10:48;18.00;99.90
25300;DHT22;13241;51.208;4.432;2023-07-31T03:13:15;17.90;99.90
25300;DHT22;13241;51.208;4.432;2023-07-31T03:15:42;17.90;99.90
25300;DHT22;13241;51.208;4.432;2023-07-31T03:18:10;17.90;99.90
25300;DHT22;13241;51.208;4.432;2023-07-31T03:20:37;18.00;99.90
25300;DHT22;13241;51.208;4.432;2023-07-31T03:23:08;18.00;99.90
25300;DHT22;13241;51.208;4.432;2023-07-31T03:25:35;18.00;99.90
25300;DHT22;13241;51.208;4.432;2023-07-31T03:28:02;18.00;99.90
25300;DHT22;13241;51.208;4.432;2023-07-31T03:30:29;18.00;99.90
25300;DHT22;13241;51.208;4.432;2023-07-31T03:32:57;18.00;99.90
25300;DHT22;13241;51.208;4.432;2023-07-31T03:35:24;18.00;99.90
25300;DHT22;13241;51.208;4.432;2023-07-31T03:37:50;18.00;99.90
25300;DHT22;13241;51.208;4.432;2023-07-31T03:40:17;18.10;99.90
25300;DHT22;13241;51.208;4.432;2023-07-31T03:42:44;18.00;99.90
25300;DHT22;13241;51.208;4.432;2023-07-31T03:45:11;18.00;99.90
25300;DHT22;13241;51.208;4.432;2023-07-31T03:47:38;18.10;99.90
25300;DHT22;13241;51.208;4.432;2023-07-31T03:50:05;18.10;99.90
25300;DHT22;13241;51.208;4.432;2023-07-31T03:52:32;18.10;99.90
25300;DHT22;13241;51.208;4.432;2023-07-31T03:54:59;18.00;99.90
25300;DHT22;13241;51.208;4.432;2023-07-31T03:57:26;18.10;99.90
25300;DHT22;13241;51.208;4.432;2023-07-31T03:59:53;18.00;99.90
25300;DHT22;13241;51.208;4.432;2023-07-31T04:02:20;18.00;99.90
25300;DHT22;13241;51.208;4.432;2023-07-31T04:04:47;18.00;99.90
25300;DHT22;13241;51.208;4.432;2023-07-31T04:07:14;18.00;99.90
25300;DHT22;13241;51.208;4.432;2023-07-31T04:09:41;18.00;99.90
25300;DHT22;13241;51.208;4.432;2023-07-31T04:12:08;18.00;99.90
25300;DHT22;13241;51.208;4.432;2023-07-31T04:14:35;17.90;99.90
25300;DHT22;13241;51.208;4.432;2023-07-31T04:17:02;17.80;99.90
25300;DHT22;13241;51.208;4.432;2023-07-31T04:19:29;17.80;99.90
25300;DHT22;13241;51.208;4.432;2023-07-31T04:21:57;17.80;99.90
25300;DHT22;13241;51.208;4.432;2023-07-31T04:24:24;17.70;99.90
25300;DHT22;13241;51.208;4.432;2023-07-31T04:26:52;17.70;99.90
25300;DHT22;13241;51.208;4.432;2023-07-31T04:29:20;17.70;99.90
25300;DHT22;13241;51.208;4.432;2023-07-31T04:31:48;17.70;99.90
25300;DHT22;13241;51.208;4.432;2023-07-31T04:34:15;17.70;99.90
25300;DHT22;13241;51.208;4.432;2023-07-31T04:36:41;17.70;99.90
25300;DHT22;13241;51.208;4.432;2023-07-31T04:39:08;17.70;99.90
25300;DHT22;13241;51.208;4.432;2023-07-31T04:41:35;17.70;99.90
25300;DHT22;13241;51.208;4.432;2023-07-31T04:44:02;17.70;99.90
25300;DHT22;13241;51.208;4.432;2023-07-31T04:46:30;17.70;99.90
25300;DHT22;13241;51.208;4.432;2023-07-31T04:48:57;17.60;99.90
25300;DHT22;13241;51.208;4.432;2023-07-31T04:51:24;17.70;99.90
25300;DHT22;13241;51.208;4.432;2023-07-31T04:53:52;17.70;99.90
25300;DHT22;13241;51.208;4.432;2023-07-31T04:56:18;17.70;99.90
25300;DHT22;13241;51.208;4.432;2023-07-31T04:58:45;17.60;99.90
25300;DHT22;13241;51.208;4.432;2023-07-31T05:01:12;17.60;99.90
25300;DHT22;13241;51.208;4.432;2023-07-31T05:03:39;17.60;99.90
25300;DHT22;13241;51.208;4.432;2023-07-31T05:06:06;17.60;99.90
25300;DHT22;13241;51.208;4.432;2023-07-31T05:08:33;17.60;99.90
25300;DHT22;13241;51.208;4.432;2023-07-31T05:11:00;17.60;99.90
25300;DHT22;13241;51.208;4.432;2023-07-31T05:13:27;17.60;99.90
25300;DHT22;13241;51.208;4.432;2023-07-31T05:15:54;17.60;99.90
25300;DHT22;13241;51.208;4.432;2023-07-31T05:18:21;17.60;99.90
25300;DHT22;13241;51.208;4.432;2023-07-31T05:20:47;17.60;99.90
25300;DHT22;13241;51.208;4.432;2023-07-31T05:23:14;17.60;99.90
25300;DHT22;13241;51.208;4.432;2023-07-31T05:25:41;17.60;99.90
25300;DHT22;13241;51.208;4.432;2023-07-31T05:28:08;17.60;99.90
25300;DHT22;13241;51.208;4.432;2023-07-31T05:30:35;17.60;99.90
25300;DHT22;13241;51.208;4.432;2023-07-31T05:33:02;17.60;99.90
25300;DHT22;13241;51.208;4.432;2023-07-31T05:35:29;17.50;99.90
25300;DHT22;13241;51.208;4.432;2023-07-31T05:37:56;17.50;99.90
25300;DHT22;13241;51.208;4.432;2023-07-31T05:40:23;17.50;99.90
25300;DHT22;13241;51.208;4.432;2023-07-31T05:42:50;17.50;99.90
25300;DHT22;13241;51.208;4.432;2023-07-31T05:45:17;17.50;99.90
25300;DHT22;13241;51.208;4.432;2023-07-31T05:47:44;17.60;99.90
25300;DHT22;13241;51.208;4.432;2023-07-31T05:50:11;17.60;99.90
25300;DHT22;13241;51.208;4.432;2023-07-31T05:52:37;17.60;99.90
25300;DHT22;13241;51.208;4.432;2023-07-31T05:55:05;17.60;99.90
25300;DHT22;13241;51.208;4.432;2023-07-31T05:57:32;17.60;99.90
25300;DHT22;13241;51.208;4.432;2023-07-31T05:59:59;17.60;99.90
25300;DHT22;13241;51.208;4.432;2023-07-31T06:02:25;17.60;99.90
25300;DHT22;13241;51.208;4.432;2023-07-31T06:04:52;17.70;99.90
25300;DHT22;13241;51.208;4.432;2023-07-31T06:07:19;17.70;99.90
25300;DHT22;13241;51.208;4.432;2023-07-31T06:09:46;17.70;99.90
25300;DHT22;13241;51.208;4.432;2023-07-31T06:12:13;17.70;99.90
25300;DHT22;13241;51.208;4.432;2023-07-31T06:14:40;17.80;99.90
25300;DHT22;13241;51.208;4.432;2023-07-31T06:17:07;17.80;99.90
25300;DHT22;13241;51.208;4.432;2023-07-31T06:19:35;17.90;99.90
25300;DHT22;13241;51.208;4.432;2023-07-31T06:22:01;18.00;99.90
25300;DHT22;13241;51.208;4.432;2023-07-31T06:24:28;18.20;99.90
25300;DHT22;13241;51.208;4.432;2023-07-31T06:26:56;18.30;99.90
25300;DHT22;13241;51.208;4.432;2023-07-31T06:29:24;18.30;99.90
25300;DHT22;13241;51.208;4.432;2023-07-31T06:31:51;18.30;99.90
25300;DHT22;13241;51.208;4.432;2023-07-31T06:34:18;18.30;99.90
25300;DHT22;13241;51.208;4.432;2023-07-31T06:36:45;18.30;99.90
25300;DHT22;13241;51.208;4.432;2023-07-31T06:39:12;18.30;99.90
25300;DHT22;13241;51.208;4.432;2023-07-31T06:41:39;18.30;99.90
25300;DHT22;13241;51.208;4.432;2023-07-31T06:44:10;18.30;99.90
25300;DHT22;13241;51.208;4.432;2023-07-31T06:46:37;18.30;99.90
25300;DHT22;13241;51.208;4.432;2023-07-31T06:49:05;18.40;99.90
25300;DHT22;13241;51.208;4.432;2023-07-31T06:51:32;18.40;99.90
25300;DHT22;13241;51.208;4.432;2023-07-31T06:53:59;18.60;99.90
25300;DHT22;13241;51.208;4.432;2023-07-31T06:56:26;18.50;99.90
25300;DHT22;13241;51.208;4.432;2023-07-31T06:58:53;18.60;99.90
25300;DHT22;13241;51.208;4.432;2023-07-31T07:01:20;18.60;99.90
25300;DHT22;13241;51.208;4.432;2023-07-31T07:03:47;18.60;99.90
25300;DHT22;13241;51.208;4.432;2023-07-31T07:06:14;18.70;99.90
25300;DHT22;13241;51.208;4.432;2023-07-31T07:08:40;18.70;99.90
25300;DHT22;13241;51.208;4.432;2023-07-31T07:11:07;18.70;99.90
25300;DHT22;13241;51.208;4.432;2023-07-31T07:13:35;18.80;99.90
25300;DHT22;13241;51.208;4.432;2023-07-31T07:16:05;18.80;99.90
25300;DHT22;13241;51.208;4.432;2023-07-31T07:18:32;18.80;99.90
25300;DHT22;13241;51.208;4.432;2023-07-31T07:20:59;18.70;99.90
25300;DHT22;13241;51.208;4.432;2023-07-31T07:23:28;18.60;99.90
25300;DHT22;13241;51.208;4.432;2023-07-31T07:25:55;18.60;99.90
25300;DHT22;13241;51.208;4.432;2023-07-31T07:28:22;18.60;99.90
25300;DHT22;13241;51.208;4.432;2023-07-31T07:30:52;18.50;99.90
25300;DHT22;13241;51.208;4.432;2023-07-31T07:33:22;18.50;99.90
25300;DHT22;13241;51.208;4.432;2023-07-31T07:35:49;18.50;99.90
25300;DHT22;13241;51.208;4.432;2023-07-31T07:38:16;18.40;99.90
25300;DHT22;13241;51.208;4.432;2023-07-31T07:40:43;18.50;99.90
25300;DHT22;13241;51.208;4.432;2023-07-31T07:43:10;18.50;99.90
25300;DHT22;13241;51.208;4.432;2023-07-31T07:45:37;18.60;99.90
25300;DHT22;13241;51.208;4.432;2023-07-31T07:48:04;18.70;99.90
25300;DHT22;13241;51.208;4.432;2023-07-31T07:50:31;18.80;99.90
25300;DHT22;13241;51.208;4.432;2023-07-31T07:52:58;18.80;99.90
25300;DHT22;13241;51.208;4.432;2023-07-31T07:55:25;18.80;99.90
25300;DHT22;13241;51.208;4.432;2023-07-31T07:57:52;19.00;99.90
25300;DHT22;13241;51.208;4.432;2023-07-31T08:00:19;19.20;99.90
25300;DHT22;13241;51.208;4.432;2023-07-31T08:02:46;19.30;99.90
25300;DHT22;13241;51.208;4.432;2023-07-31T08:05:14;19.60;99.90
25300;DHT22;13241;51.208;4.432;2023-07-31T08:07:41;19.80;99.90
25300;DHT22;13241;51.208;4.432;2023-07-31T08:10:08;20.10;99.90
25300;DHT22;13241;51.208;4.432;2023-07-31T08:12:35;20.30;99.90
25300;DHT22;13241;51.208;4.432;2023-07-31T08:15:02;20.30;99.90
25300;DHT22;13241;51.208;4.432;2023-07-31T08:17:29;20.30;99.90
25300;DHT22;13241;51.208;4.432;2023-07-31T08:19:56;20.30;99.90
25300;DHT22;13241;51.208;4.432;2023-07-31T08:22:24;20.30;99.90
25300;DHT22;13241;51.208;4.432;2023-07-31T08:24:52;20.30;99.90
25300;DHT22;13241;51.208;4.432;2023-07-31T08:27:19;20.30;99.90
25300;DHT22;13241;51.208;4.432;2023-07-31T08:29:46;20.30;99.90
25300;DHT22;13241;51.208;4.432;2023-07-31T08:32:13;20.40;99.90
25300;DHT22;13241;51.208;4.432;2023-07-31T08:34:39;20.50;99.90
25300;DHT22;13241;51.208;4.432;2023-07-31T08:37:06;20.50;99.90
25300;DHT22;13241;51.208;4.432;2023-07-31T08:39:33;20.50;99.90
25300;DHT22;13241;51.208;4.432;2023-07-31T08:42:00;20.50;99.90
25300;DHT22;13241;51.208;4.432;2023-07-31T08:44:27;20.40;99.90
25300;DHT22;13241;51.208;4.432;2023-07-31T08:46:56;20.30;99.90
25300;DHT22;13241;51.208;4.432;2023-07-31T08:49:23;20.30;99.90
25300;DHT22;13241;51.208;4.432;2023-07-31T08:51:52;20.30;99.90
25300;DHT22;13241;51.208;4.432;2023-07-31T08:54:20;20.30;99.90
25300;DHT22;13241;51.208;4.432;2023-07-31T08:56:47;20.50;99.90
25300;DHT22;13241;51.208;4.432;2023-07-31T08:59:15;20.70;99.90
25300;DHT22;13241;51.208;4.432;2023-07-31T09:01:48;20.70;99.90
25300;DHT22;13241;51.208;4.432;2023-07-31T09:04:19;20.80;99.90
25300;DHT22;13241;51.208;4.432;2023-07-31T09:06:47;20.90;99.90
25300;DHT22;13241;51.208;4.432;2023-07-31T09:09:15;20.90;99.90
25300;DHT22;13241;51.208;4.432;2023-07-31T09:11:42;21.10;99.90
25300;DHT22;13241;51.208;4.432;2023-07-31T09:14:10;21.20;99.90
25300;DHT22;13241;51.208;4.432;2023-07-31T09:16:55;21.40;99.90
25300;DHT22;13241;51.208;4.432;2023-07-31T09:19:31;21.70;99.90
25300;DHT22;13241;51.208;4.432;2023-07-31T09:22:00;21.80;99.90
25300;DHT22;13241;51.208;4.432;2023-07-31T09:24:29;21.70;99.90
25300;DHT22;13241;51.208;4.432;2023-07-31T09:26:58;21.60;99.90
25300;DHT22;13241;51.208;4.432;2023-07-31T09:29:26;21.50;99.90
25300;DHT22;13241;51.208;4.432;2023-07-31T09:31:54;21.40;99.90
25300;DHT22;13241;51.208;4.432;2023-07-31T09:34:30;21.20;99.90
25300;DHT22;13241;51.208;4.432;2023-07-31T09:37:00;21.20;99.90
25300;DHT22;13241;51.208;4.432;2023-07-31T09:39:29;21.20;99.90
25300;DHT22;13241;51.208;4.432;2023-07-31T09:41:57;21.10;99.90
25300;DHT22;13241;51.208;4.432;2023-07-31T09:44:53;21.10;99.90
25300;DHT22;13241;51.208;4.432;2023-07-31T09:47:23;21.00;99.90
25300;DHT22;13241;51.208;4.432;2023-07-31T09:49:53;21.00;99.90
25300;DHT22;13241;51.208;4.432;2023-07-31T09:52:20;21.10;99.90
25300;DHT22;13241;51.208;4.432;2023-07-31T09:54:47;21.10;99.90
25300;DHT22;13241;51.208;4.432;2023-07-31T09:57:16;21.10;99.90
25300;DHT22;13241;51.208;4.432;2023-07-31T09:59:45;21.10;99.90
25300;DHT22;13241;51.208;4.432;2023-07-31T10:02:18;20.90;99.90
25300;DHT22;13241;51.208;4.432;2023-07-31T10:04:49;20.70;99.90
25300;DHT22;13241;51.208;4.432;2023-07-31T10:07:18;20.70;99.90
25300;DHT22;13241;51.208;4.432;2023-07-31T10:09:46;20.50;99.90
25300;DHT22;13241;51.208;4.432;2023-07-31T10:12:18;20.40;99.90
25300;DHT22;13241;51.208;4.432;2023-07-31T10:14:46;20.40;99.90
25300;DHT22;13241;51.208;4.432;2023-07-31T10:17:14;20.40;99.90
25300;DHT22;13241;51.208;4.432;2023-07-31T10:19:41;20.50;99.90
25300;DHT22;13241;51.208;4.432;2023-07-31T10:22:09;20.50;99.90
25300;DHT22;13241;51.208;4.432;2023-07-31T10:24:40;20.40;99.90
25300;DHT22;13241;51.208;4.432;2023-07-31T10:27:09;20.30;99.90
25300;DHT22;13241;51.208;4.432;2023-07-31T10:29:41;20.20;99.90
25300;DHT22;13241;51.208;4.432;2023-07-31T10:32:10;20.10;99.90
25300;DHT22;13241;51.208;4.432;2023-07-31T10:34:39;20.10;99.90
25300;DHT22;13241;51.208;4.432;2023-07-31T10:40:15;20.20;99.90
25300;DHT22;13241;51.208;4.432;2023-07-31T10:42:47;20.30;99.90
25300;DHT22;13241;51.208;4.432;2023-07-31T10:45:34;20.30;99.90
25300;DHT22;13241;51.208;4.432;2023-07-31T10:50:36;20.20;99.90
25300;DHT22;13241;51.208;4.432;2023-07-31T10:53:03;20.20;99.90
25300;DHT22;13241;51.208;4.432;2023-07-31T10:55:32;20.10;99.90
25300;DHT22;13241;51.208;4.432;2023-07-31T10:58:13;20.20;99.90
25300;DHT22;13241;51.208;4.432;2023-07-31T11:00:42;20.30;99.90
25300;DHT22;13241;51.208;4.432;2023-07-31T11:03:13;20.50;99.90
25300;DHT22;13241;51.208;4.432;2023-07-31T11:08:23;21.20;99.90
25300;DHT22;13241;51.208;4.432;2023-07-31T11:11:04;21.30;99.90
25300;DHT22;13241;51.208;4.432;2023-07-31T11:16:00;22.00;99.90
25300;DHT22;13241;51.208;4.432;2023-07-31T11:18:27;22.10;99.90
25300;DHT22;13241;51.208;4.432;2023-07-31T11:20:54;21.90;99.90
25300;DHT22;13241;51.208;4.432;2023-07-31T11:23:22;21.60;99.90
25300;DHT22;13241;51.208;4.432;2023-07-31T11:25:50;21.30;99.90
25300;DHT22;13241;51.208;4.432;2023-07-31T11:28:19;21.00;99.90
25300;DHT22;13241;51.208;4.432;2023-07-31T11:30:46;21.00;99.90
25300;DHT22;13241;51.208;4.432;2023-07-31T11:33:14;20.90;99.90
25300;DHT22;13241;51.208;4.432;2023-07-31T11:35:44;20.80;99.90
25300;DHT22;13241;51.208;4.432;2023-07-31T11:38:32;20.80;99.90
25300;DHT22;13241;51.208;4.432;2023-07-31T11:41:01;20.80;99.90
25300;DHT22;13241;51.208;4.432;2023-07-31T11:43:31;20.80;99.90
25300;DHT22;13241;51.208;4.432;2023-07-31T11:46:00;20.80;99.90
25300;DHT22;13241;51.208;4.432;2023-07-31T11:48:32;20.80;99.90
25300;DHT22;13241;51.208;4.432;2023-07-31T11:51:01;20.90;99.90
25300;DHT22;13241;51.208;4.432;2023-07-31T11:53:47;20.90;99.90
25300;DHT22;13241;51.208;4.432;2023-07-31T11:56:18;20.80;99.90
25300;DHT22;13241;51.208;4.432;2023-07-31T11:58:48;20.80;99.90
25300;DHT22;13241;51.208;4.432;2023-07-31T12:01:18;20.90;99.90
25300;DHT22;13241;51.208;4.432;2023-07-31T12:03:47;21.00;99.90
25300;DHT22;13241;51.208;4.432;2023-07-31T12:06:14;21.00;99.90
25300;DHT22;13241;51.208;4.432;2023-07-31T12:08:41;21.20;99.90
25300;DHT22;13241;51.208;4.432;2023-07-31T12:11:09;21.40;99.90
25300;DHT22;13241;51.208;4.432;2023-07-31T12:13:40;21.90;99.90
25300;DHT22;13241;51.208;4.432;2023-07-31T12:16:07;22.20;99.90
25300;DHT22;13241;51.208;4.432;2023-07-31T12:18:36;22.60;99.90
25300;DHT22;13241;51.208;4.432;2023-07-31T12:21:08;22.80;99.90
25300;DHT22;13241;51.208;4.432;2023-07-31T12:23:37;22.60;99.90
25300;DHT22;13241;51.208;4.432;2023-07-31T12:26:12;22.40;99.90
25300;DHT22;13241;51.208;4.432;2023-07-31T12:28:44;22.40;99.90
25300;DHT22;13241;51.208;4.432;2023-07-31T12:31:14;22.50;99.90
25300;DHT22;13241;51.208;4.432;2023-07-31T12:33:41;22.70;99.90
25300;DHT22;13241;51.208;4.432;2023-07-31T12:36:24;22.70;99.90
25300;DHT22;13241;51.208;4.432;2023-07-31T12:38:52;22.40;99.90
25300;DHT22;13241;51.208;4.432;2023-07-31T12:41:19;22.20;99.90
25300;DHT22;13241;51.208;4.432;2023-07-31T12:43:46;22.00;99.90
25300;DHT22;13241;51.208;4.432;2023-07-31T12:46:13;21.80;99.90
25300;DHT22;13241;51.208;4.432;2023-07-31T12:48:41;21.60;99.90
25300;DHT22;13241;51.208;4.432;2023-07-31T12:51:08;21.50;99.90
25300;DHT22;13241;51.208;4.432;2023-07-31T12:53:35;21.40;99.90
25300;DHT22;13241;51.208;4.432;2023-07-31T12:56:02;21.40;99.90
25300;DHT22;13241;51.208;4.432;2023-07-31T12:58:29;21.50;99.90
25300;DHT22;13241;51.208;4.432;2023-07-31T13:00:56;21.70;99.90
25300;DHT22;13241;51.208;4.432;2023-07-31T13:03:23;21.80;99.90
25300;DHT22;13241;51.208;4.432;2023-07-31T13:05:50;21.70;99.90
25300;DHT22;13241;51.208;4.432;2023-07-31T13:08:19;21.60;99.90
25300;DHT22;13241;51.208;4.432;2023-07-31T13:10:46;21.60;99.90
25300;DHT22;13241;51.208;4.432;2023-07-31T13:13:13;21.70;99.90
25300;DHT22;13241;51.208;4.432;2023-07-31T13:15:40;22.00;99.90
25300;DHT22;13241;51.208;4.432;2023-07-31T13:18:07;22.30;99.90
25300;DHT22;13241;51.208;4.432;2023-07-31T13:20:34;22.20;99.90
25300;DHT22;13241;51.208;4.432;2023-07-31T13:23:01;22.20;99.90
25300;DHT22;13241;51.208;4.432;2023-07-31T13:25:28;22.10;99.90
25300;DHT22;13241;51.208;4.432;2023-07-31T13:27:55;22.00;99.90
25300;DHT22;13241;51.208;4.432;2023-07-31T13:30:22;21.80;99.90
25300;DHT22;13241;51.208;4.432;2023-07-31T13:32:49;21.50;99.90
25300;DHT22;13241;51.208;4.432;2023-07-31T13:35:16;21.30;99.90
25300;DHT22;13241;51.208;4.432;2023-07-31T13:37:43;21.00;99.90
25300;DHT22;13241;51.208;4.432;2023-07-31T13:40:10;20.90;99.90
25300;DHT22;13241;51.208;4.432;2023-07-31T13:42:37;20.90;99.90
25300;DHT22;13241;51.208;4.432;2023-07-31T13:45:05;20.80;99.90
25300;DHT22;13241;51.208;4.432;2023-07-31T13:47:33;20.80;99.90
25300;DHT22;13241;51.208;4.432;2023-07-31T13:50:01;20.60;99.90
25300;DHT22;13241;51.208;4.432;2023-07-31T13:52:29;20.40;99.90
25300;DHT22;13241;51.208;4.432;2023-07-31T13:54:55;20.20;99.90
25300;DHT22;13241;51.208;4.432;2023-07-31T13:57:23;20.10;99.90
25300;DHT22;13241;51.208;4.432;2023-07-31T13:59:50;20.10;99.90
25300;DHT22;13241;51.208;4.432;2023-07-31T14:02:17;20.10;99.90
25300;DHT22;13241;51.208;4.432;2023-07-31T14:04:44;19.90;99.90
25300;DHT22;13241;51.208;4.432;2023-07-31T14:07:11;19.80;99.90
25300;DHT22;13241;51.208;4.432;2023-07-31T14:09:38;19.70;99.90
25300;DHT22;13241;51.208;4.432;2023-07-31T14:12:05;19.70;99.90
25300;DHT22;13241;51.208;4.432;2023-07-31T14:14:32;19.70;99.90
25300;DHT22;13241;51.208;4.432;2023-07-31T14:17:01;19.80;99.90
25300;DHT22;13241;51.208;4.432;2023-07-31T14:19:28;19.80;99.90
25300;DHT22;13241;51.208;4.432;2023-07-31T14:21:58;19.70;99.90
25300;DHT22;13241;51.208;4.432;2023-07-31T14:24:37;19.70;99.90
25300;DHT22;13241;51.208;4.432;2023-07-31T14:27:04;19.60;99.90
25300;DHT22;13241;51.208;4.432;2023-07-31T14:29:31;19.50;99.90
25300;DHT22;13241;51.208;4.432;2023-07-31T14:31:58;19.40;99.90
25300;DHT22;13241;51.208;4.432;2023-07-31T14:34:26;19.30;99.90
25300;DHT22;13241;51.208;4.432;2023-07-31T14:36:53;19.20;99.90
25300;DHT22;13241;51.208;4.432;2023-07-31T14:39:20;19.10;99.90
25300;DHT22;13241;51.208;4.432;2023-07-31T14:41:47;19.20;99.90
25300;DHT22;13241;51.208;4.432;2023-07-31T14:44:15;19.10;99.90
25300;DHT22;13241;51.208;4.432;2023-07-31T14:46:42;19.10;99.90
25300;DHT22;13241;51.208;4.432;2023-07-31T14:49:09;19.10;99.90
25300;DHT22;13241;51.208;4.432;2023-07-31T14:51:36;19.00;99.90
25300;DHT22;13241;51.208;4.432;2023-07-31T14:54:03;19.10;99.90
25300;DHT22;13241;51.208;4.432;2023-07-31T14:56:30;19.00;99.90
25300;DHT22;13241;51.208;4.432;2023-07-31T14:58:57;19.10;99.90
25300;DHT22;13241;51.208;4.432;2023-07-31T15:01:24;19.10;99.90
25300;DHT22;13241;51.208;4.432;2023-07-31T15:03:52;19.10;99.90
25300;DHT22;13241;51.208;4.432;2023-07-31T15:06:19;19.00;99.90
25300;DHT22;13241;51.208;4.432;2023-07-31T15:08:45;19.10;99.90
25300;DHT22;13241;51.208;4.432;2023-07-31T15:11:12;19.10;99.90
25300;DHT22;13241;51.208;4.432;2023-07-31T15:13:41;19.10;99.90
25300;DHT22;13241;51.208;4.432;2023-07-31T15:16:08;19.20;99.90
25300;DHT22;13241;51.208;4.432;2023-07-31T15:18:35;19.20;99.90
25300;DHT22;13241;51.208;4.432;2023-07-31T15:21:02;19.20;99.90
25300;DHT22;13241;51.208;4.432;2023-07-31T15:23:28;19.20;99.90
25300;DHT22;13241;51.208;4.432;2023-07-31T15:25:55;19.20;99.90
25300;DHT22;13241;51.208;4.432;2023-07-31T15:28:22;19.20;99.90
25300;DHT22;13241;51.208;4.432;2023-07-31T15:30:49;19.20;99.90
25300;DHT22;13241;51.208;4.432;2023-07-31T15:33:16;19.20;99.90
25300;DHT22;13241;51.208;4.432;2023-07-31T15:35:43;19.20;99.90
25300;DHT22;13241;51.208;4.432;2023-07-31T15:38:10;19.20;99.90
25300;DHT22;13241;51.208;4.432;2023-07-31T15:40:38;19.20;99.90
25300;DHT22;13241;51.208;4.432;2023-07-31T15:43:05;19.20;99.90
25300;DHT22;13241;51.208;4.432;2023-07-31T15:45:32;19.20;99.90
25300;DHT22;13241;51.208;4.432;2023-07-31T15:47:59;19.30;99.90